createdAt,value
2022-11-08T00:00:05.923Z,45.10
2022-11-08T00:02:33.774Z,45.10
2022-11-08T00:05:19.343Z,45.20
2022-11-08T00:08:05.944Z,45.20
2022-11-08T00:10:51.419Z,45.20
2022-11-08T00:13:36.791Z,45.10
2022-11-08T00:16:04.506Z,45.10
2022-11-08T00:18:32.151Z,45.20
2022-11-08T00:21:02.251Z,45.20
2022-11-08T00:23:31.267Z,45.20
2022-11-08T00:25:59.028Z,45.10
2022-11-08T00:28:26.710Z,45.10
2022-11-08T00:30:54.409Z,45.10
2022-11-08T00:33:22.078Z,45.10
2022-11-08T00:35:49.735Z,45.10
2022-11-08T00:38:17.697Z,45.20
2022-11-08T00:40:46.907Z,45.10
2022-11-08T00:43:14.579Z,45.30
2022-11-08T00:45:42.240Z,45.20
2022-11-08T00:48:09.898Z,45.20
2022-11-08T00:50:39.115Z,45.20
2022-11-08T00:53:06.824Z,45.30
2022-11-08T00:55:34.471Z,45.30
2022-11-08T00:58:03.459Z,45.20
2022-11-08T01:00:31.645Z,45.30
2022-11-08T01:03:13.287Z,45.40
2022-11-08T01:05:40.987Z,45.40
2022-11-08T01:08:08.761Z,45.30
2022-11-08T01:10:36.544Z,45.40
2022-11-08T01:13:05.547Z,45.30
2022-11-08T01:15:35.436Z,45.30
2022-11-08T01:18:03.225Z,45.40
2022-11-08T01:20:30.903Z,45.40
2022-11-08T01:22:58.566Z,45.40
2022-11-08T01:25:26.283Z,45.30
2022-11-08T01:27:53.934Z,45.20
2022-11-08T01:30:22.921Z,45.10
2022-11-08T01:32:50.628Z,45.20
2022-11-08T01:35:18.396Z,45.20
2022-11-08T01:37:46.035Z,45.30
2022-11-08T01:40:13.913Z,45.30
2022-11-08T01:42:41.562Z,45.40
2022-11-08T01:45:10.635Z,45.40
2022-11-08T01:47:39.593Z,45.40
2022-11-08T01:50:08.066Z,45.50
2022-11-08T01:52:36.398Z,45.50
2022-11-08T01:55:08.174Z,45.50
2022-11-08T01:57:39.403Z,45.50
2022-11-08T02:00:10.155Z,45.50
2022-11-08T02:02:39.512Z,45.50
2022-11-08T02:05:24.559Z,45.50
2022-11-08T02:07:54.047Z,45.50
2022-11-08T02:10:22.909Z,45.60
2022-11-08T02:12:50.617Z,45.60
2022-11-08T02:15:18.322Z,45.60
2022-11-08T02:17:47.303Z,45.50
2022-11-08T02:20:14.985Z,45.60
2022-11-08T02:22:44.545Z,45.60
2022-11-08T02:25:13.590Z,45.60
2022-11-08T02:27:41.303Z,45.60
2022-11-08T02:30:10.222Z,45.60
2022-11-08T02:32:39.129Z,45.60
2022-11-08T02:35:07.643Z,45.50
2022-11-08T02:37:35.290Z,45.60
2022-11-08T02:40:03.065Z,45.50
2022-11-08T02:42:32.079Z,45.50
2022-11-08T02:44:59.740Z,45.50
2022-11-08T02:47:27.440Z,45.50
2022-11-08T02:49:55.113Z,45.50
2022-11-08T02:52:22.738Z,45.50
2022-11-08T02:54:50.438Z,45.50
2022-11-08T02:57:18.099Z,45.60
2022-11-08T02:59:48.921Z,45.70
2022-11-08T03:02:16.735Z,45.60
2022-11-08T03:04:44.487Z,45.60
2022-11-08T03:07:12.121Z,45.70
2022-11-08T03:09:39.798Z,45.70
2022-11-08T03:12:07.969Z,45.80
2022-11-08T03:14:35.627Z,45.80
2022-11-08T03:17:05.185Z,45.80
2022-11-08T03:19:32.873Z,45.80
2022-11-08T03:22:00.523Z,45.90
2022-11-08T03:24:28.172Z,45.90
2022-11-08T03:26:55.867Z,45.90
2022-11-08T03:29:23.540Z,45.70
2022-11-08T03:31:51.191Z,45.60
2022-11-08T03:34:20.189Z,45.60
2022-11-08T03:36:47.882Z,45.60
2022-11-08T03:39:15.896Z,45.60
2022-11-08T03:41:43.550Z,45.60
2022-11-08T03:44:11.210Z,45.70
2022-11-08T03:46:38.915Z,45.70
2022-11-08T03:49:06.563Z,45.80
2022-11-08T03:51:35.529Z,45.80
2022-11-08T03:54:03.199Z,45.80
2022-11-08T03:56:30.886Z,45.80
2022-11-08T03:58:58.599Z,45.80
2022-11-08T04:01:26.359Z,45.80
2022-11-08T04:03:54.130Z,45.90
2022-11-08T04:06:21.774Z,45.90
2022-11-08T04:08:50.763Z,46.00
2022-11-08T04:11:35.827Z,46.00
2022-11-08T04:14:21.288Z,45.90
2022-11-08T04:16:48.987Z,46.00
2022-11-08T04:19:34.200Z,45.90
2022-11-08T04:22:01.858Z,46.00
2022-11-08T04:24:30.875Z,46.00
2022-11-08T04:26:58.740Z,46.00
2022-11-08T04:29:26.486Z,46.00
2022-11-08T04:31:54.143Z,45.90
2022-11-08T04:34:21.847Z,45.90
2022-11-08T04:36:49.502Z,45.90
2022-11-08T04:39:17.254Z,45.90
2022-11-08T04:41:46.261Z,45.90
2022-11-08T04:44:15.478Z,45.90
2022-11-08T04:46:43.147Z,45.90
2022-11-08T04:49:10.803Z,45.90
2022-11-08T04:51:38.505Z,46.00
2022-11-08T04:54:07.722Z,46.00
2022-11-08T04:56:35.507Z,46.20
2022-11-08T04:59:07.251Z,46.10
2022-11-08T05:01:38.597Z,46.00
2022-11-08T05:04:06.511Z,46.00
2022-11-08T05:06:34.278Z,46.10
2022-11-08T05:09:01.963Z,46.10
2022-11-08T05:11:30.512Z,46.20
2022-11-08T05:13:58.341Z,46.20
2022-11-08T05:16:28.114Z,46.10
2022-11-08T05:18:55.875Z,46.20
2022-11-08T05:21:41.000Z,46.10
2022-11-08T05:24:09.999Z,46.20
2022-11-08T05:26:41.970Z,46.10
2022-11-08T05:29:09.776Z,46.10
2022-11-08T05:31:38.911Z,45.90
2022-11-08T05:34:07.512Z,45.90
2022-11-08T05:36:35.355Z,45.90
2022-11-08T05:39:03.380Z,45.90
2022-11-08T05:41:31.073Z,45.80
2022-11-08T05:43:58.714Z,45.80
2022-11-08T05:46:26.392Z,45.90
2022-11-08T05:48:55.385Z,46.00
2022-11-08T05:51:23.172Z,46.00
2022-11-08T05:53:50.841Z,46.00
2022-11-08T05:56:18.818Z,46.10
2022-11-08T05:58:46.518Z,46.10
2022-11-08T06:01:15.264Z,46.10
2022-11-08T06:03:42.961Z,46.20
2022-11-08T06:06:13.070Z,46.20
2022-11-08T06:08:40.817Z,46.20
2022-11-08T06:11:09.403Z,46.20
2022-11-08T06:13:37.165Z,46.20
2022-11-08T06:16:06.038Z,46.30
2022-11-08T06:18:33.797Z,46.30
2022-11-08T06:21:01.508Z,46.30
2022-11-08T06:23:30.654Z,46.30
2022-11-08T06:25:58.418Z,46.30
2022-11-08T06:28:26.098Z,46.30
2022-11-08T06:30:53.806Z,46.30
2022-11-08T06:33:22.176Z,46.30
2022-11-08T06:35:50.007Z,46.30
2022-11-08T06:38:17.664Z,46.30
2022-11-08T06:40:46.635Z,46.30
2022-11-08T06:43:19.298Z,46.30
2022-11-08T06:45:47.623Z,46.50
2022-11-08T06:48:15.382Z,46.40
2022-11-08T06:50:43.248Z,46.40
2022-11-08T06:53:12.877Z,46.40
2022-11-08T06:55:40.686Z,46.40
2022-11-08T06:58:10.585Z,46.40
2022-11-08T07:00:38.321Z,46.50
2022-11-08T07:03:06.111Z,46.40
2022-11-08T07:05:34.038Z,46.50
2022-11-08T07:08:01.795Z,46.40
2022-11-08T07:10:31.033Z,46.40
2022-11-08T07:12:59.639Z,46.50
2022-11-08T07:15:28.607Z,46.50
2022-11-08T07:17:56.321Z,46.50
2022-11-08T07:20:23.996Z,46.50
2022-11-08T07:22:54.479Z,46.50
2022-11-08T07:25:22.143Z,46.50
2022-11-08T07:27:49.803Z,46.50
2022-11-08T07:30:17.559Z,46.50
2022-11-08T07:32:46.578Z,46.30
2022-11-08T07:35:14.304Z,46.20
2022-11-08T07:37:42.057Z,46.20
2022-11-08T07:40:11.203Z,46.10
2022-11-08T07:43:09.611Z,46.20
2022-11-08T07:45:26.949Z,46.20
2022-11-08T07:47:59.751Z,46.30
2022-11-08T07:50:27.565Z,46.30
2022-11-08T07:52:55.274Z,46.30
2022-11-08T07:55:22.986Z,46.30
2022-11-08T07:57:50.635Z,46.30
2022-11-08T08:00:18.663Z,46.40
2022-11-08T08:02:46.378Z,46.40
2022-11-08T08:05:15.526Z,46.40
2022-11-08T08:07:43.218Z,46.40
2022-11-08T08:10:11.511Z,46.40
2022-11-08T08:12:39.227Z,46.40
2022-11-08T08:15:08.007Z,46.50
2022-11-08T08:17:35.706Z,46.40
2022-11-08T08:20:03.521Z,46.40
2022-11-08T08:22:32.620Z,46.40
2022-11-08T08:25:03.075Z,46.40
2022-11-08T08:27:31.085Z,46.40
2022-11-08T08:29:58.863Z,46.40
2022-11-08T08:32:31.290Z,46.30
2022-11-08T08:34:59.233Z,46.40
2022-11-08T08:37:26.896Z,46.40
2022-11-08T08:39:55.920Z,46.40
2022-11-08T08:42:23.619Z,46.50
2022-11-08T08:44:51.275Z,46.50
2022-11-08T08:47:18.978Z,46.50
2022-11-08T08:49:46.698Z,46.50
2022-11-08T08:52:14.465Z,46.60
2022-11-08T08:54:42.173Z,46.60
2022-11-08T08:57:11.633Z,46.60
2022-11-08T09:02:27.095Z,46.50
2022-11-08T09:04:54.864Z,46.50
2022-11-08T09:07:22.561Z,46.50
2022-11-08T09:09:50.375Z,46.50
2022-11-08T09:12:19.375Z,46.40
2022-11-08T09:14:47.079Z,46.40
2022-11-08T09:17:14.778Z,46.40
2022-11-08T09:19:42.462Z,46.30
2022-11-08T09:22:10.177Z,46.30
2022-11-08T09:24:37.935Z,46.30
2022-11-08T09:27:05.606Z,46.30
2022-11-08T09:29:34.729Z,46.30
2022-11-08T09:32:02.500Z,46.20
2022-11-08T09:34:30.211Z,46.20
2022-11-08T09:36:57.918Z,46.00
2022-11-08T09:39:25.693Z,45.90
2022-11-08T09:42:01.867Z,45.80
2022-11-08T09:44:46.760Z,45.80
2022-11-08T09:47:16.068Z,45.80
2022-11-08T09:49:45.633Z,45.80
2022-11-08T09:52:16.205Z,45.80
2022-11-08T09:54:45.150Z,45.80
2022-11-08T09:57:14.855Z,45.70
2022-11-08T09:59:44.513Z,45.70
2022-11-08T10:02:16.592Z,45.80
2022-11-08T10:04:44.357Z,45.80
2022-11-08T10:07:18.826Z,45.80
2022-11-08T10:09:54.591Z,45.80
2022-11-08T10:12:24.186Z,45.80
2022-11-08T10:15:01.308Z,45.80
2022-11-08T10:17:51.090Z,45.80
2022-11-08T10:20:21.766Z,45.80
2022-11-08T10:22:53.516Z,45.80
2022-11-08T10:25:24.417Z,45.80
2022-11-08T10:27:52.304Z,45.90
2022-11-08T10:30:22.771Z,45.80
2022-11-08T10:32:52.718Z,45.80
2022-11-08T10:35:22.782Z,45.80
2022-11-08T10:37:51.880Z,45.90
2022-11-08T10:40:22.552Z,45.90
2022-11-08T10:42:53.685Z,45.90
2022-11-08T10:45:22.695Z,45.90
2022-11-08T10:47:50.516Z,45.90
2022-11-08T10:50:19.215Z,45.90
2022-11-08T10:52:48.462Z,46.00
2022-11-08T10:55:26.865Z,46.00
2022-11-08T10:57:54.663Z,46.00
2022-11-08T11:00:31.003Z,46.10
2022-11-08T11:02:59.932Z,46.10
2022-11-08T11:05:30.117Z,46.10
2022-11-08T11:08:02.052Z,46.10
2022-11-08T11:10:31.330Z,46.10
2022-11-08T11:13:03.576Z,46.10
2022-11-08T11:15:36.859Z,46.10
2022-11-08T11:18:05.002Z,46.10
2022-11-08T11:20:32.852Z,46.10
2022-11-08T11:23:01.082Z,46.10
2022-11-08T11:25:28.810Z,46.10
2022-11-08T11:27:57.882Z,46.00
2022-11-08T11:30:30.663Z,46.00
2022-11-08T11:33:07.057Z,46.00
2022-11-08T11:35:42.867Z,45.90
2022-11-08T11:38:19.579Z,45.70
2022-11-08T11:40:47.946Z,45.70
2022-11-08T11:43:19.384Z,45.70
2022-11-08T11:45:48.357Z,45.70
2022-11-08T11:48:19.140Z,45.60
2022-11-08T11:50:47.948Z,45.60
2022-11-08T11:53:18.209Z,45.60
2022-11-08T11:55:57.203Z,45.70
2022-11-08T11:58:47.409Z,45.70
2022-11-08T12:01:19.339Z,45.70
2022-11-08T12:03:58.854Z,45.80
2022-11-08T12:06:31.964Z,45.80
2022-11-08T12:09:09.586Z,45.90
2022-11-08T12:11:43.401Z,45.80
2022-11-08T12:14:33.262Z,45.90
2022-11-08T12:17:11.184Z,45.80
2022-11-08T12:19:42.505Z,46.50
2022-11-08T12:22:21.714Z,45.90
2022-11-08T12:24:50.968Z,45.70
2022-11-08T12:27:23.410Z,45.50
2022-11-08T12:29:53.649Z,45.30
2022-11-08T12:32:27.310Z,45.20
2022-11-08T12:35:04.007Z,45.10
2022-11-08T12:37:38.558Z,45.10
2022-11-08T12:40:07.960Z,45.20
2022-11-08T12:42:45.966Z,45.30
2022-11-08T12:45:27.322Z,45.40
2022-11-08T12:47:57.435Z,45.50
2022-11-08T12:50:30.151Z,45.60
2022-11-08T12:53:07.636Z,45.70
2022-11-08T12:55:36.381Z,45.70
2022-11-08T12:58:07.174Z,45.80
2022-11-08T13:00:34.887Z,45.90
2022-11-08T13:03:05.874Z,45.90
2022-11-08T13:05:36.513Z,45.90
2022-11-08T13:08:08.050Z,45.90
2022-11-08T13:10:37.531Z,45.90
2022-11-08T13:13:09.649Z,45.90
2022-11-08T13:15:37.326Z,46.00
2022-11-08T13:18:33.673Z,46.00
2022-11-08T13:21:09.770Z,46.00
2022-11-08T13:23:37.427Z,46.10
2022-11-08T13:26:23.352Z,46.10
2022-11-08T13:28:51.084Z,46.20
2022-11-08T13:31:43.217Z,46.20
2022-11-08T13:34:19.085Z,46.00
2022-11-08T13:36:56.425Z,46.50
2022-11-08T13:39:32.016Z,45.80
2022-11-08T13:42:04.924Z,45.90
2022-11-08T13:44:58.359Z,45.90
2022-11-08T13:47:55.176Z,46.00
2022-11-08T13:50:54.589Z,46.00
2022-11-08T13:53:43.299Z,46.20
2022-11-08T13:56:44.744Z,46.20
2022-11-08T13:59:54.005Z,46.20
2022-11-08T14:02:35.087Z,46.30
2022-11-08T14:05:27.477Z,46.30
2022-11-08T14:08:01.902Z,46.30
2022-11-08T14:10:33.512Z,46.30
2022-11-08T14:13:03.470Z,46.40
2022-11-08T14:15:32.388Z,46.40
2022-11-08T14:18:01.010Z,46.50
2022-11-08T14:20:32.542Z,46.50
2022-11-08T14:23:00.346Z,46.50
2022-11-08T14:25:32.341Z,46.50
2022-11-08T14:28:00.072Z,46.50
2022-11-08T14:30:28.072Z,46.50
2022-11-08T14:33:15.601Z,46.40
2022-11-08T14:35:43.617Z,46.30
2022-11-08T14:38:14.652Z,46.40
2022-11-08T14:40:49.710Z,46.40
2022-11-08T14:43:17.712Z,46.40
2022-11-08T14:45:45.734Z,46.50
2022-11-08T14:48:15.911Z,46.40
2022-11-08T14:50:43.823Z,46.50
2022-11-08T14:53:22.054Z,46.50
2022-11-08T14:56:02.339Z,46.50
2022-11-08T14:58:30.125Z,46.50
2022-11-08T15:00:57.885Z,46.60
2022-11-08T15:03:26.428Z,46.50
2022-11-08T15:05:55.680Z,46.60
2022-11-08T15:08:25.605Z,46.60
2022-11-08T15:10:56.496Z,46.60
2022-11-08T15:13:24.224Z,46.60
2022-11-08T15:15:53.742Z,46.60
2022-11-08T15:18:26.937Z,46.60
2022-11-08T15:20:55.932Z,46.70
2022-11-08T15:23:28.301Z,46.70
2022-11-08T15:25:58.315Z,46.70
2022-11-08T15:28:26.834Z,46.70
2022-11-08T15:30:56.048Z,46.70
2022-11-08T15:33:24.084Z,46.80
2022-11-08T15:35:51.809Z,46.70
2022-11-08T15:38:28.644Z,46.80
2022-11-08T15:40:58.969Z,47.00
2022-11-08T15:43:40.939Z,47.00
2022-11-08T15:46:30.507Z,47.10
2022-11-08T15:48:58.720Z,47.20
2022-11-08T15:51:26.398Z,47.20
2022-11-08T15:53:54.064Z,47.10
2022-11-08T15:56:23.113Z,47.20
2022-11-08T15:58:50.822Z,47.20
2022-11-08T16:01:20.488Z,47.20
2022-11-08T16:03:48.377Z,47.30
2022-11-08T16:06:16.185Z,47.30
2022-11-08T16:08:43.839Z,47.20
2022-11-08T16:11:14.189Z,47.30
2022-11-08T16:13:43.193Z,47.30
2022-11-08T16:16:12.617Z,47.30
2022-11-08T16:18:40.525Z,47.30
2022-11-08T16:21:10.181Z,47.30
2022-11-08T16:23:37.911Z,47.40
2022-11-08T16:26:06.656Z,47.40
2022-11-08T16:28:36.159Z,47.40
2022-11-08T16:31:05.853Z,47.40
2022-11-08T16:33:34.346Z,47.40
2022-11-08T16:36:03.088Z,47.30
2022-11-08T16:38:33.689Z,47.20
2022-11-08T16:41:01.352Z,47.20
2022-11-08T16:43:29.098Z,47.10
2022-11-08T16:46:06.086Z,47.10
2022-11-08T16:48:36.940Z,47.10
2022-11-08T16:51:05.957Z,47.10
2022-11-08T16:53:33.746Z,47.10
2022-11-08T16:56:01.452Z,47.10
2022-11-08T16:58:29.185Z,47.00
2022-11-08T17:00:57.157Z,47.00
2022-11-08T17:03:25.713Z,47.10
2022-11-08T17:05:54.748Z,47.10
2022-11-08T17:08:22.618Z,47.10
2022-11-08T17:10:50.293Z,47.00
2022-11-08T17:13:19.647Z,47.00
2022-11-08T17:15:47.356Z,47.10
2022-11-08T17:18:16.298Z,47.10
2022-11-08T17:20:44.297Z,47.10
2022-11-08T17:23:13.306Z,47.10
2022-11-08T17:25:42.850Z,47.10
2022-11-08T17:28:10.789Z,47.20
2022-11-08T17:30:43.799Z,47.20
2022-11-08T17:33:12.782Z,47.20
2022-11-08T17:38:29.610Z,47.20
2022-11-08T17:41:03.194Z,47.20
2022-11-08T17:43:31.419Z,47.20
2022-11-08T17:45:59.307Z,47.10
2022-11-08T17:48:27.011Z,47.10
2022-11-08T17:50:54.713Z,47.10
2022-11-08T17:53:22.424Z,47.20
2022-11-08T17:55:55.118Z,47.20
2022-11-08T17:58:22.831Z,47.20
2022-11-08T18:00:53.446Z,47.30
2022-11-08T18:03:21.559Z,47.40
2022-11-08T18:05:55.707Z,47.40
2022-11-08T18:08:26.816Z,47.50
2022-11-08T18:10:56.277Z,47.50
2022-11-08T18:13:23.997Z,47.50
2022-11-08T18:15:52.228Z,47.50
2022-11-08T18:18:20.147Z,47.50
2022-11-08T18:20:53.807Z,47.60
2022-11-08T18:23:21.618Z,47.60
2022-11-08T18:25:49.850Z,47.60
2022-11-08T18:28:18.856Z,47.60
2022-11-08T18:30:47.696Z,47.60
2022-11-08T18:33:16.156Z,47.60
2022-11-08T18:35:44.231Z,47.60
2022-11-08T18:38:11.989Z,47.60
2022-11-08T18:40:39.765Z,47.60
2022-11-08T18:43:07.650Z,47.70
2022-11-08T18:45:36.710Z,47.60
2022-11-08T18:48:04.798Z,47.70
2022-11-08T18:50:32.569Z,47.60
2022-11-08T18:53:03.719Z,47.60
2022-11-08T18:55:32.175Z,47.60
2022-11-08T18:58:01.636Z,47.60
2022-11-08T19:00:29.335Z,47.60
2022-11-08T19:02:58.375Z,47.60
2022-11-08T19:05:26.053Z,47.60
2022-11-08T19:07:53.718Z,47.50
2022-11-08T19:10:21.470Z,47.40
2022-11-08T19:12:49.177Z,47.40
2022-11-08T19:15:17.061Z,47.30
2022-11-08T19:17:49.817Z,47.20
2022-11-08T19:20:23.831Z,47.20
2022-11-08T19:22:53.825Z,47.30
2022-11-08T19:25:21.537Z,47.20
2022-11-08T19:27:49.235Z,47.90
2022-11-08T19:30:16.912Z,47.20
2022-11-08T19:32:45.440Z,47.20
2022-11-08T19:35:13.154Z,47.20
2022-11-08T19:37:42.674Z,47.20
2022-11-08T19:40:11.593Z,47.20
2022-11-08T19:42:39.251Z,47.20
2022-11-08T19:45:08.148Z,47.20
2022-11-08T19:47:36.108Z,47.20
2022-11-08T19:50:03.821Z,47.20
2022-11-08T19:52:31.539Z,47.30
2022-11-08T19:55:00.562Z,47.30
2022-11-08T19:57:29.758Z,47.30
2022-11-08T19:59:57.414Z,47.30
2022-11-08T20:02:25.110Z,47.30
2022-11-08T20:04:52.832Z,47.30
2022-11-08T20:07:20.687Z,47.30
2022-11-08T20:09:48.497Z,47.40
2022-11-08T20:12:17.492Z,47.50
2022-11-08T20:14:45.157Z,47.60
2022-11-08T20:17:12.793Z,47.60
2022-11-08T20:19:40.447Z,47.60
2022-11-08T20:22:08.082Z,47.70
2022-11-08T20:24:35.746Z,47.70
2022-11-08T20:27:03.505Z,47.70
2022-11-08T20:29:32.470Z,47.70
2022-11-08T20:32:01.191Z,47.70
2022-11-08T20:34:29.815Z,47.70
2022-11-08T20:36:57.803Z,47.70
2022-11-08T20:39:25.479Z,47.70
2022-11-08T20:41:53.132Z,47.80
2022-11-08T20:44:22.102Z,47.70
2022-11-08T20:46:51.135Z,47.80
2022-11-08T20:49:18.783Z,47.80
2022-11-08T20:51:47.111Z,47.80
2022-11-08T20:54:16.527Z,47.80
2022-11-08T20:56:44.194Z,47.80
2022-11-08T20:59:12.366Z,47.80
2022-11-08T21:01:40.268Z,47.80
2022-11-08T21:04:09.572Z,47.80
2022-11-08T21:06:37.421Z,47.80
2022-11-08T21:09:29.788Z,47.80
2022-11-08T21:11:53.841Z,47.80
2022-11-08T21:14:22.536Z,47.70
2022-11-08T21:17:20.416Z,47.50
2022-11-08T21:19:39.524Z,47.50
2022-11-08T21:22:15.993Z,47.50
2022-11-08T21:24:43.927Z,47.50
2022-11-08T21:27:11.736Z,47.50
2022-11-08T21:29:39.801Z,47.50
2022-11-08T21:32:07.733Z,47.50
2022-11-08T21:34:35.481Z,47.50
2022-11-08T21:37:04.562Z,47.50
2022-11-08T21:39:32.286Z,47.50
2022-11-08T21:42:00.039Z,47.50
2022-11-08T21:44:27.778Z,47.50
2022-11-08T21:46:55.515Z,47.50
2022-11-08T21:49:23.440Z,47.50
2022-11-08T21:51:51.178Z,47.50
2022-11-08T21:54:20.256Z,47.60
2022-11-08T21:56:47.973Z,47.60
2022-11-08T21:59:15.872Z,47.60
2022-11-08T22:01:43.603Z,47.60
2022-11-08T22:04:11.496Z,47.60
2022-11-08T22:06:42.465Z,47.70
2022-11-08T22:09:12.727Z,47.70
2022-11-08T22:11:41.866Z,47.80
2022-11-08T22:14:09.658Z,47.80
2022-11-08T22:16:37.418Z,47.80
2022-11-08T22:19:06.124Z,47.80
2022-11-08T22:21:41.102Z,47.80
2022-11-08T22:24:10.326Z,47.80
2022-11-08T22:26:38.103Z,48.20
2022-11-08T22:29:07.377Z,47.90
2022-11-08T22:31:35.117Z,48.00
2022-11-08T22:34:02.849Z,48.00
2022-11-08T22:36:30.578Z,48.00
2022-11-08T22:38:58.426Z,48.00
2022-11-08T22:41:26.192Z,48.00
2022-11-08T22:43:53.954Z,48.00
2022-11-08T22:46:23.041Z,48.00
2022-11-08T22:48:50.816Z,48.10
2022-11-08T22:51:18.600Z,48.00
2022-11-08T22:53:46.332Z,48.00
2022-11-08T22:56:14.138Z,48.10
2022-11-08T22:58:41.873Z,48.00
2022-11-08T23:01:10.895Z,48.10
2022-11-08T23:03:40.033Z,48.00
2022-11-08T23:06:07.788Z,48.00
2022-11-08T23:08:35.552Z,48.00
2022-11-08T23:11:20.776Z,48.10
2022-11-08T23:14:06.399Z,48.10
2022-11-08T23:16:36.393Z,48.10
2022-11-08T23:19:23.703Z,48.10
2022-11-08T23:22:09.275Z,48.00
2022-11-08T23:24:37.043Z,47.90
2022-11-08T23:27:22.965Z,47.90
2022-11-08T23:30:08.450Z,47.80
2022-11-08T23:32:36.390Z,47.90
2022-11-08T23:35:05.929Z,47.90
2022-11-08T23:37:33.673Z,47.80
2022-11-08T23:40:19.020Z,47.80
2022-11-08T23:43:04.571Z,47.80
2022-11-08T23:45:32.239Z,47.90
2022-11-08T23:48:00.919Z,47.80
2022-11-08T23:50:29.891Z,47.80
2022-11-08T23:52:59.864Z,47.80
2022-11-08T23:55:27.575Z,47.80
2022-11-08T23:57:55.246Z,47.90
